sensor_id;sensor_type;location;lat;lon;timestamp;P1;durP1;ratioP1;P2;durP2;ratioP2
83459;SDS011;73384;49.646;7.168;2024-03-23T00:55:10;15.82;;;10.10;;
83459;SDS011;73384;49.646;7.168;2024-03-23T00:57:36;16.15;;;10.10;;
83459;SDS011;73384;49.646;7.168;2024-03-23T01:00:01;17.48;;;10.55;;
83459;SDS011;73384;49.646;7.168;2024-03-23T01:02:27;14.57;;;9.05;;
83459;SDS011;73384;49.646;7.168;2024-03-23T01:04:52;20.20;;;11.60;;
83459;SDS011;73384;49.646;7.168;2024-03-23T01:07:18;19.23;;;10.63;;
83459;SDS011;73384;49.646;7.168;2024-03-23T01:09:43;17.20;;;10.55;;
83459;SDS011;73384;49.646;7.168;2024-03-23T01:12:08;17.40;;;10.77;;
83459;SDS011;73384;49.646;7.168;2024-03-23T01:14:34;18.65;;;9.18;;
83459;SDS011;73384;49.646;7.168;2024-03-23T01:17:01;17.60;;;11.52;;
83459;SDS011;73384;49.646;7.168;2024-03-23T01:19:26;17.25;;;10.05;;
83459;SDS011;73384;49.646;7.168;2024-03-23T01:21:52;17.02;;;10.60;;
83459;SDS011;73384;49.646;7.168;2024-03-23T01:24:17;18.85;;;9.82;;
83459;SDS011;73384;49.646;7.168;2024-03-23T01:26:43;14.93;;;9.10;;
83459;SDS011;73384;49.646;7.168;2024-03-23T01:29:08;17.08;;;10.15;;
83459;SDS011;73384;49.646;7.168;2024-03-23T01:31:33;18.13;;;10.82;;
83459;SDS011;73384;49.646;7.168;2024-03-23T01:33:58;20.70;;;12.40;;
83459;SDS011;73384;49.646;7.168;2024-03-23T01:36:24;23.63;;;14.23;;
83459;SDS011;73384;49.646;7.168;2024-03-23T01:38:50;33.13;;;17.45;;
83459;SDS011;73384;49.646;7.168;2024-03-23T01:41:16;29.65;;;15.30;;
83459;SDS011;73384;49.646;7.168;2024-03-23T01:43:42;26.58;;;16.17;;
83459;SDS011;73384;49.646;7.168;2024-03-23T01:46:08;25.77;;;14.93;;
83459;SDS011;73384;49.646;7.168;2024-03-23T01:48:33;25.35;;;15.32;;
83459;SDS011;73384;49.646;7.168;2024-03-23T01:50:59;28.45;;;16.38;;
83459;SDS011;73384;49.646;7.168;2024-03-23T01:53:24;28.52;;;14.50;;
83459;SDS011;73384;49.646;7.168;2024-03-23T01:55:50;24.92;;;14.50;;
83459;SDS011;73384;49.646;7.168;2024-03-23T01:58:16;26.65;;;15.60;;
83459;SDS011;73384;49.646;7.168;2024-03-23T02:00:41;24.60;;;15.00;;
83459;SDS011;73384;49.646;7.168;2024-03-23T02:03:22;25.80;;;14.43;;
83459;SDS011;73384;49.646;7.168;2024-03-23T02:05:51;27.48;;;14.38;;
83459;SDS011;73384;49.646;7.168;2024-03-23T02:08:18;27.35;;;14.82;;
83459;SDS011;73384;49.646;7.168;2024-03-23T02:10:48;27.40;;;13.80;;
83459;SDS011;73384;49.646;7.168;2024-03-23T02:13:14;26.33;;;14.93;;
83459;SDS011;73384;49.646;7.168;2024-03-23T02:15:41;24.02;;;13.25;;
83459;SDS011;73384;49.646;7.168;2024-03-23T02:18:09;29.13;;;13.98;;
83459;SDS011;73384;49.646;7.168;2024-03-23T02:20:35;23.67;;;14.38;;
83459;SDS011;73384;49.646;7.168;2024-03-23T02:23:01;26.30;;;13.82;;
83459;SDS011;73384;49.646;7.168;2024-03-23T02:25:27;24.63;;;12.00;;
83459;SDS011;73384;49.646;7.168;2024-03-23T02:27:52;25.35;;;13.32;;
83459;SDS011;73384;49.646;7.168;2024-03-23T02:30:20;24.35;;;12.45;;
83459;SDS011;73384;49.646;7.168;2024-03-23T02:32:46;23.45;;;13.40;;
83459;SDS011;73384;49.646;7.168;2024-03-23T02:35:11;23.48;;;13.07;;
83459;SDS011;73384;49.646;7.168;2024-03-23T02:37:37;22.98;;;13.57;;
83459;SDS011;73384;49.646;7.168;2024-03-23T02:40:02;21.90;;;12.88;;
83459;SDS011;73384;49.646;7.168;2024-03-23T02:42:28;25.17;;;13.90;;
83459;SDS011;73384;49.646;7.168;2024-03-23T02:44:53;26.02;;;12.70;;
83459;SDS011;73384;49.646;7.168;2024-03-23T02:47:19;26.95;;;14.43;;
83459;SDS011;73384;49.646;7.168;2024-03-23T02:49:44;24.65;;;14.63;;
83459;SDS011;73384;49.646;7.168;2024-03-23T02:52:10;31.83;;;15.30;;
83459;SDS011;73384;49.646;7.168;2024-03-23T02:54:35;29.85;;;14.95;;
83459;SDS011;73384;49.646;7.168;2024-03-23T02:57:01;23.65;;;13.68;;
83459;SDS011;73384;49.646;7.168;2024-03-23T02:59:26;23.23;;;13.00;;
83459;SDS011;73384;49.646;7.168;2024-03-23T03:01:51;28.58;;;15.13;;
83459;SDS011;73384;49.646;7.168;2024-03-23T03:04:17;23.80;;;12.40;;
83459;SDS011;73384;49.646;7.168;2024-03-23T03:06:43;20.65;;;10.65;;
83459;SDS011;73384;49.646;7.168;2024-03-23T03:09:12;22.92;;;11.35;;
83459;SDS011;73384;49.646;7.168;2024-03-23T03:11:37;26.17;;;11.88;;
83459;SDS011;73384;49.646;7.168;2024-03-23T03:14:02;26.67;;;12.57;;
83459;SDS011;73384;49.646;7.168;2024-03-23T03:16:28;24.60;;;12.55;;
83459;SDS011;73384;49.646;7.168;2024-03-23T03:18:53;24.27;;;12.00;;
83459;SDS011;73384;49.646;7.168;2024-03-23T03:21:19;25.42;;;12.40;;
83459;SDS011;73384;49.646;7.168;2024-03-23T03:23:44;19.80;;;10.27;;
83459;SDS011;73384;49.646;7.168;2024-03-23T03:26:10;11.55;;;6.25;;
83459;SDS011;73384;49.646;7.168;2024-03-23T03:28:35;7.60;;;4.13;;
83459;SDS011;73384;49.646;7.168;2024-03-23T03:31:00;7.40;;;3.00;;
83459;SDS011;73384;49.646;7.168;2024-03-23T03:33:26;4.57;;;2.42;;
83459;SDS011;73384;49.646;7.168;2024-03-23T03:35:54;2.92;;;1.63;;
83459;SDS011;73384;49.646;7.168;2024-03-23T03:38:20;5.53;;;1.75;;
83459;SDS011;73384;49.646;7.168;2024-03-23T03:40:46;3.20;;;1.50;;
83459;SDS011;73384;49.646;7.168;2024-03-23T03:43:11;3.25;;;1.35;;
83459;SDS011;73384;49.646;7.168;2024-03-23T03:45:36;2.50;;;1.25;;
83459;SDS011;73384;49.646;7.168;2024-03-23T03:48:02;2.05;;;1.25;;
83459;SDS011;73384;49.646;7.168;2024-03-23T03:50:27;1.55;;;0.95;;
83459;SDS011;73384;49.646;7.168;2024-03-23T03:52:53;1.60;;;0.90;;
83459;SDS011;73384;49.646;7.168;2024-03-23T03:55:18;1.58;;;0.90;;
83459;SDS011;73384;49.646;7.168;2024-03-23T03:57:43;1.30;;;0.70;;
83459;SDS011;73384;49.646;7.168;2024-03-23T04:00:09;1.10;;;0.80;;
83459;SDS011;73384;49.646;7.168;2024-03-23T04:02:38;0.50;;;0.50;;
83459;SDS011;73384;49.646;7.168;2024-03-23T04:05:04;1.30;;;0.70;;
83459;SDS011;73384;49.646;7.168;2024-03-23T04:07:30;1.10;;;0.68;;
83459;SDS011;73384;49.646;7.168;2024-03-23T04:09:55;0.60;;;0.60;;
83459;SDS011;73384;49.646;7.168;2024-03-23T04:12:20;1.08;;;0.77;;
83459;SDS011;73384;49.646;7.168;2024-03-23T04:14:46;0.93;;;0.60;;
83459;SDS011;73384;49.646;7.168;2024-03-23T04:17:11;1.35;;;0.63;;
83459;SDS011;73384;49.646;7.168;2024-03-23T04:19:37;0.70;;;0.50;;
83459;SDS011;73384;49.646;7.168;2024-03-23T04:22:02;1.77;;;0.90;;
83459;SDS011;73384;49.646;7.168;2024-03-23T04:24:31;0.95;;;0.65;;
83459;SDS011;73384;49.646;7.168;2024-03-23T04:26:56;0.73;;;0.65;;
83459;SDS011;73384;49.646;7.168;2024-03-23T04:29:22;0.88;;;0.60;;
83459;SDS011;73384;49.646;7.168;2024-03-23T04:31:47;1.02;;;0.70;;
83459;SDS011;73384;49.646;7.168;2024-03-23T04:34:13;0.93;;;0.60;;
83459;SDS011;73384;49.646;7.168;2024-03-23T04:36:39;2.63;;;0.68;;
83459;SDS011;73384;49.646;7.168;2024-03-23T04:39:05;0.60;;;0.60;;
83459;SDS011;73384;49.646;7.168;2024-03-23T04:41:33;0.52;;;0.52;;
83459;SDS011;73384;49.646;7.168;2024-03-23T04:43:59;0.73;;;0.68;;
83459;SDS011;73384;49.646;7.168;2024-03-23T04:46:24;0.63;;;0.63;;
83459;SDS011;73384;49.646;7.168;2024-03-23T04:48:49;0.80;;;0.80;;
83459;SDS011;73384;49.646;7.168;2024-03-23T04:51:21;1.30;;;0.77;;
83459;SDS011;73384;49.646;7.168;2024-03-23T04:53:47;0.93;;;0.82;;
83459;SDS011;73384;49.646;7.168;2024-03-23T04:56:15;1.30;;;0.80;;
83459;SDS011;73384;49.646;7.168;2024-03-23T04:58:42;1.33;;;0.90;;
83459;SDS011;73384;49.646;7.168;2024-03-23T05:01:07;0.70;;;0.70;;
83459;SDS011;73384;49.646;7.168;2024-03-23T05:03:33;1.00;;;0.70;;
83459;SDS011;73384;49.646;7.168;2024-03-23T05:05:58;1.02;;;0.90;;
83459;SDS011;73384;49.646;7.168;2024-03-23T05:08:24;1.17;;;0.95;;
83459;SDS011;73384;49.646;7.168;2024-03-23T05:10:49;1.50;;;0.95;;
83459;SDS011;73384;49.646;7.168;2024-03-23T05:13:14;1.75;;;1.40;;
83459;SDS011;73384;49.646;7.168;2024-03-23T05:15:40;1.10;;;1.00;;
83459;SDS011;73384;49.646;7.168;2024-03-23T05:18:05;1.27;;;1.08;;
83459;SDS011;73384;49.646;7.168;2024-03-23T05:20:31;1.00;;;0.90;;
83459;SDS011;73384;49.646;7.168;2024-03-23T05:22:57;1.48;;;1.02;;
83459;SDS011;73384;49.646;7.168;2024-03-23T05:25:22;0.98;;;0.80;;
83459;SDS011;73384;49.646;7.168;2024-03-23T05:27:48;0.80;;;0.80;;
83459;SDS011;73384;49.646;7.168;2024-03-23T05:32:39;0.60;;;0.60;;
83459;SDS011;73384;49.646;7.168;2024-03-23T05:35:07;0.90;;;0.90;;
83459;SDS011;73384;49.646;7.168;2024-03-23T05:37:33;1.17;;;0.70;;
83459;SDS011;73384;49.646;7.168;2024-03-23T05:39:59;0.98;;;0.70;;
83459;SDS011;73384;49.646;7.168;2024-03-23T05:42:25;1.80;;;1.10;;
83459;SDS011;73384;49.646;7.168;2024-03-23T05:44:50;1.90;;;1.00;;
83459;SDS011;73384;49.646;7.168;2024-03-23T05:47:15;1.15;;;0.90;;
83459;SDS011;73384;49.646;7.168;2024-03-23T05:49:41;1.35;;;1.08;;
83459;SDS011;73384;49.646;7.168;2024-03-23T05:52:10;2.50;;;1.20;;
83459;SDS011;73384;49.646;7.168;2024-03-23T05:54:36;6.90;;;1.70;;
83459;SDS011;73384;49.646;7.168;2024-03-23T05:57:02;8.23;;;2.10;;
83459;SDS011;73384;49.646;7.168;2024-03-23T05:59:27;2.65;;;1.30;;
83459;SDS011;73384;49.646;7.168;2024-03-23T06:01:53;4.60;;;1.60;;
83459;SDS011;73384;49.646;7.168;2024-03-23T06:04:18;5.35;;;1.75;;
83459;SDS011;73384;49.646;7.168;2024-03-23T06:06:44;4.20;;;1.63;;
83459;SDS011;73384;49.646;7.168;2024-03-23T06:09:10;8.52;;;2.95;;
83459;SDS011;73384;49.646;7.168;2024-03-23T06:11:35;5.75;;;2.05;;
83459;SDS011;73384;49.646;7.168;2024-03-23T06:14:00;9.65;;;2.38;;
83459;SDS011;73384;49.646;7.168;2024-03-23T06:16:26;9.02;;;2.20;;
83459;SDS011;73384;49.646;7.168;2024-03-23T06:18:52;3.63;;;1.35;;
83459;SDS011;73384;49.646;7.168;2024-03-23T06:21:19;4.72;;;1.80;;
83459;SDS011;73384;49.646;7.168;2024-03-23T06:23:45;8.27;;;2.17;;
83459;SDS011;73384;49.646;7.168;2024-03-23T06:26:19;9.95;;;2.63;;
83459;SDS011;73384;49.646;7.168;2024-03-23T06:28:47;5.43;;;2.22;;
83459;SDS011;73384;49.646;7.168;2024-03-23T06:31:13;8.18;;;1.98;;
83459;SDS011;73384;49.646;7.168;2024-03-23T06:33:38;5.60;;;2.35;;
83459;SDS011;73384;49.646;7.168;2024-03-23T06:36:06;6.43;;;2.28;;
83459;SDS011;73384;49.646;7.168;2024-03-23T06:38:33;8.82;;;3.13;;
83459;SDS011;73384;49.646;7.168;2024-03-23T06:40:59;7.05;;;2.40;;
83459;SDS011;73384;49.646;7.168;2024-03-23T06:43:27;9.75;;;3.28;;
83459;SDS011;73384;49.646;7.168;2024-03-23T06:45:53;6.13;;;2.20;;
83459;SDS011;73384;49.646;7.168;2024-03-23T06:48:18;11.35;;;3.00;;
83459;SDS011;73384;49.646;7.168;2024-03-23T06:50:44;11.10;;;2.40;;
83459;SDS011;73384;49.646;7.168;2024-03-23T06:53:11;5.35;;;2.45;;
83459;SDS011;73384;49.646;7.168;2024-03-23T06:55:37;8.02;;;2.70;;
83459;SDS011;73384;49.646;7.168;2024-03-23T06:58:02;6.47;;;2.42;;
83459;SDS011;73384;49.646;7.168;2024-03-23T07:00:29;10.25;;;3.13;;
83459;SDS011;73384;49.646;7.168;2024-03-23T07:02:54;9.88;;;3.30;;
83459;SDS011;73384;49.646;7.168;2024-03-23T07:05:19;14.40;;;3.50;;
83459;SDS011;73384;49.646;7.168;2024-03-23T07:07:45;11.32;;;2.97;;
83459;SDS011;73384;49.646;7.168;2024-03-23T07:10:10;9.18;;;3.20;;
83459;SDS011;73384;49.646;7.168;2024-03-23T07:12:35;11.60;;;3.28;;
83459;SDS011;73384;49.646;7.168;2024-03-23T07:15:01;11.07;;;3.63;;
83459;SDS011;73384;49.646;7.168;2024-03-23T07:17:26;7.68;;;3.38;;
83459;SDS011;73384;49.646;7.168;2024-03-23T07:19:51;8.93;;;3.70;;
83459;SDS011;73384;49.646;7.168;2024-03-23T07:22:17;14.30;;;4.03;;
83459;SDS011;73384;49.646;7.168;2024-03-23T07:24:43;13.80;;;4.07;;
83459;SDS011;73384;49.646;7.168;2024-03-23T07:27:09;10.02;;;4.20;;
83459;SDS011;73384;49.646;7.168;2024-03-23T07:29:35;7.10;;;2.95;;
83459;SDS011;73384;49.646;7.168;2024-03-23T07:32:01;11.50;;;4.28;;
83459;SDS011;73384;49.646;7.168;2024-03-23T07:34:26;10.18;;;3.88;;
83459;SDS011;73384;49.646;7.168;2024-03-23T07:36:51;9.32;;;3.88;;
83459;SDS011;73384;49.646;7.168;2024-03-23T07:39:17;11.07;;;3.80;;
83459;SDS011;73384;49.646;7.168;2024-03-23T07:42:00;13.88;;;4.13;;
83459;SDS011;73384;49.646;7.168;2024-03-23T07:44:33;13.07;;;3.80;;
83459;SDS011;73384;49.646;7.168;2024-03-23T07:47:00;11.57;;;4.65;;
83459;SDS011;73384;49.646;7.168;2024-03-23T07:49:26;11.75;;;4.20;;
83459;SDS011;73384;49.646;7.168;2024-03-23T07:51:51;10.25;;;4.05;;
83459;SDS011;73384;49.646;7.168;2024-03-23T07:54:17;9.02;;;4.03;;
83459;SDS011;73384;49.646;7.168;2024-03-23T07:56:42;10.70;;;3.70;;
83459;SDS011;73384;49.646;7.168;2024-03-23T07:59:07;9.32;;;3.78;;
83459;SDS011;73384;49.646;7.168;2024-03-23T08:01:33;8.30;;;4.03;;
83459;SDS011;73384;49.646;7.168;2024-03-23T08:03:59;10.02;;;3.78;;
83459;SDS011;73384;49.646;7.168;2024-03-23T08:06:24;8.70;;;3.30;;
83459;SDS011;73384;49.646;7.168;2024-03-23T08:08:51;11.00;;;4.05;;
83459;SDS011;73384;49.646;7.168;2024-03-23T08:11:25;8.57;;;4.45;;
83459;SDS011;73384;49.646;7.168;2024-03-23T08:13:51;9.93;;;3.90;;
83459;SDS011;73384;49.646;7.168;2024-03-23T08:16:16;16.48;;;5.05;;
83459;SDS011;73384;49.646;7.168;2024-03-23T08:18:41;13.18;;;3.67;;
83459;SDS011;73384;49.646;7.168;2024-03-23T08:21:07;12.55;;;3.35;;
83459;SDS011;73384;49.646;7.168;2024-03-23T08:23:35;15.98;;;4.13;;
83459;SDS011;73384;49.646;7.168;2024-03-23T08:26:12;10.38;;;3.78;;
83459;SDS011;73384;49.646;7.168;2024-03-23T08:28:40;9.05;;;3.30;;
83459;SDS011;73384;49.646;7.168;2024-03-23T08:31:07;8.88;;;2.95;;
83459;SDS011;73384;49.646;7.168;2024-03-23T08:33:33;11.02;;;3.28;;
83459;SDS011;73384;49.646;7.168;2024-03-23T08:36:02;11.40;;;4.10;;
83459;SDS011;73384;49.646;7.168;2024-03-23T08:38:30;11.25;;;3.83;;
83459;SDS011;73384;49.646;7.168;2024-03-23T08:41:00;7.40;;;3.30;;
83459;SDS011;73384;49.646;7.168;2024-03-23T08:43:27;8.27;;;2.70;;
83459;SDS011;73384;49.646;7.168;2024-03-23T08:45:54;11.23;;;3.72;;
83459;SDS011;73384;49.646;7.168;2024-03-23T08:48:19;11.18;;;2.67;;
83459;SDS011;73384;49.646;7.168;2024-03-23T08:50:58;9.50;;;2.97;;
83459;SDS011;73384;49.646;7.168;2024-03-23T08:53:28;10.82;;;3.35;;
83459;SDS011;73384;49.646;7.168;2024-03-23T08:55:55;5.53;;;2.60;;
83459;SDS011;73384;49.646;7.168;2024-03-23T08:58:23;7.90;;;3.03;;
83459;SDS011;73384;49.646;7.168;2024-03-23T09:00:49;7.07;;;3.00;;
83459;SDS011;73384;49.646;7.168;2024-03-23T09:03:15;10.32;;;3.50;;
83459;SDS011;73384;49.646;7.168;2024-03-23T09:05:40;6.60;;;1.80;;
83459;SDS011;73384;49.646;7.168;2024-03-23T09:08:06;9.00;;;2.17;;
83459;SDS011;73384;49.646;7.168;2024-03-23T09:10:34;9.73;;;2.10;;
83459;SDS011;73384;49.646;7.168;2024-03-23T09:13:03;12.23;;;2.47;;
83459;SDS011;73384;49.646;7.168;2024-03-23T09:15:28;4.75;;;2.03;;
83459;SDS011;73384;49.646;7.168;2024-03-23T09:17:54;7.10;;;1.92;;
83459;SDS011;73384;49.646;7.168;2024-03-23T09:20:19;7.43;;;2.57;;
83459;SDS011;73384;49.646;7.168;2024-03-23T09:22:44;10.38;;;2.58;;
83459;SDS011;73384;49.646;7.168;2024-03-23T09:25:10;7.75;;;2.08;;
83459;SDS011;73384;49.646;7.168;2024-03-23T09:27:47;10.77;;;2.90;;
83459;SDS011;73384;49.646;7.168;2024-03-23T09:32:39;8.55;;;2.95;;
83459;SDS011;73384;49.646;7.168;2024-03-23T09:35:04;6.20;;;2.40;;
83459;SDS011;73384;49.646;7.168;2024-03-23T09:37:38;8.80;;;2.25;;
83459;SDS011;73384;49.646;7.168;2024-03-23T09:40:05;6.85;;;2.55;;
83459;SDS011;73384;49.646;7.168;2024-03-23T09:42:34;7.25;;;2.20;;
83459;SDS011;73384;49.646;7.168;2024-03-23T09:44:59;6.50;;;1.90;;
83459;SDS011;73384;49.646;7.168;2024-03-23T09:47:26;9.80;;;3.45;;
83459;SDS011;73384;49.646;7.168;2024-03-23T09:49:52;9.77;;;2.80;;
83459;SDS011;73384;49.646;7.168;2024-03-23T09:52:18;9.93;;;3.05;;
83459;SDS011;73384;49.646;7.168;2024-03-23T09:54:43;8.48;;;3.03;;
83459;SDS011;73384;49.646;7.168;2024-03-23T09:57:09;7.63;;;2.92;;
83459;SDS011;73384;49.646;7.168;2024-03-23T09:59:35;3.55;;;2.28;;
83459;SDS011;73384;49.646;7.168;2024-03-23T10:02:03;7.05;;;1.80;;
83459;SDS011;73384;49.646;7.168;2024-03-23T10:04:38;10.70;;;2.80;;
83459;SDS011;73384;49.646;7.168;2024-03-23T10:07:15;8.32;;;2.28;;
83459;SDS011;73384;49.646;7.168;2024-03-23T10:09:44;5.93;;;2.17;;
83459;SDS011;73384;49.646;7.168;2024-03-23T10:12:11;5.15;;;2.10;;
83459;SDS011;73384;49.646;7.168;2024-03-23T10:14:39;7.35;;;2.20;;
83459;SDS011;73384;49.646;7.168;2024-03-23T10:17:17;3.58;;;2.00;;
83459;SDS011;73384;49.646;7.168;2024-03-23T10:19:44;8.52;;;2.00;;
83459;SDS011;73384;49.646;7.168;2024-03-23T10:22:17;7.35;;;2.13;;
83459;SDS011;73384;49.646;7.168;2024-03-23T10:24:44;5.28;;;1.60;;
83459;SDS011;73384;49.646;7.168;2024-03-23T10:27:09;7.00;;;2.20;;
83459;SDS011;73384;49.646;7.168;2024-03-23T10:29:39;7.15;;;1.92;;
83459;SDS011;73384;49.646;7.168;2024-03-23T10:32:10;4.97;;;1.58;;
83459;SDS011;73384;49.646;7.168;2024-03-23T10:34:37;6.72;;;2.38;;
83459;SDS011;73384;49.646;7.168;2024-03-23T10:37:03;8.50;;;2.13;;
83459;SDS011;73384;49.646;7.168;2024-03-23T10:39:32;5.82;;;2.50;;
83459;SDS011;73384;49.646;7.168;2024-03-23T10:42:05;7.45;;;2.00;;
83459;SDS011;73384;49.646;7.168;2024-03-23T10:44:35;7.85;;;1.80;;
83459;SDS011;73384;49.646;7.168;2024-03-23T10:47:00;6.00;;;2.65;;
83459;SDS011;73384;49.646;7.168;2024-03-23T10:49:30;5.90;;;1.70;;
83459;SDS011;73384;49.646;7.168;2024-03-23T10:51:59;6.07;;;1.90;;
83459;SDS011;73384;49.646;7.168;2024-03-23T10:54:26;3.33;;;1.65;;
83459;SDS011;73384;49.646;7.168;2024-03-23T10:56:57;7.22;;;2.15;;
83459;SDS011;73384;49.646;7.168;2024-03-23T10:59:27;5.70;;;1.70;;
83459;SDS011;73384;49.646;7.168;2024-03-23T11:02:00;6.78;;;2.05;;
83459;SDS011;73384;49.646;7.168;2024-03-23T11:04:35;6.63;;;1.50;;
83459;SDS011;73384;49.646;7.168;2024-03-23T11:09:51;4.75;;;1.70;;
83459;SDS011;73384;49.646;7.168;2024-03-23T11:12:24;10.70;;;2.05;;
83459;SDS011;73384;49.646;7.168;2024-03-23T11:15:06;6.63;;;1.67;;
83459;SDS011;73384;49.646;7.168;2024-03-23T11:17:37;5.30;;;1.85;;
83459;SDS011;73384;49.646;7.168;2024-03-23T11:20:03;5.68;;;1.45;;
83459;SDS011;73384;49.646;7.168;2024-03-23T11:25:02;4.00;;;1.98;;
83459;SDS011;73384;49.646;7.168;2024-03-23T11:27:47;2.20;;;1.10;;
83459;SDS011;73384;49.646;7.168;2024-03-23T11:30:15;4.18;;;1.02;;
83459;SDS011;73384;49.646;7.168;2024-03-23T11:32:55;2.85;;;1.08;;
83459;SDS011;73384;49.646;7.168;2024-03-23T11:35:25;5.78;;;1.52;;
83459;SDS011;73384;49.646;7.168;2024-03-23T11:38:10;4.03;;;1.42;;
83459;SDS011;73384;49.646;7.168;2024-03-23T11:43:12;2.53;;;1.30;;
83459;SDS011;73384;49.646;7.168;2024-03-23T11:45:39;5.45;;;1.40;;
83459;SDS011;73384;49.646;7.168;2024-03-23T11:48:15;5.28;;;1.60;;
83459;SDS011;73384;49.646;7.168;2024-03-23T11:50:46;3.03;;;1.00;;
83459;SDS011;73384;49.646;7.168;2024-03-23T11:53:13;1.80;;;0.85;;
83459;SDS011;73384;49.646;7.168;2024-03-23T11:55:47;1.42;;;0.85;;
83459;SDS011;73384;49.646;7.168;2024-03-23T11:58:16;2.08;;;0.90;;
83459;SDS011;73384;49.646;7.168;2024-03-23T12:00:48;1.23;;;0.90;;
83459;SDS011;73384;49.646;7.168;2024-03-23T12:03:16;2.67;;;1.25;;
83459;SDS011;73384;49.646;7.168;2024-03-23T12:05:46;0.93;;;0.73;;
83459;SDS011;73384;49.646;7.168;2024-03-23T12:08:16;1.38;;;0.93;;
83459;SDS011;73384;49.646;7.168;2024-03-23T12:10:53;1.95;;;0.75;;
83459;SDS011;73384;49.646;7.168;2024-03-23T12:13:31;2.65;;;0.90;;
83459;SDS011;73384;49.646;7.168;2024-03-23T12:16:08;2.25;;;0.80;;
83459;SDS011;73384;49.646;7.168;2024-03-23T12:18:34;2.65;;;0.98;;
83459;SDS011;73384;49.646;7.168;2024-03-23T12:20:59;1.48;;;0.80;;
83459;SDS011;73384;49.646;7.168;2024-03-23T12:23:25;1.40;;;0.95;;
83459;SDS011;73384;49.646;7.168;2024-03-23T12:25:50;3.25;;;1.00;;
83459;SDS011;73384;49.646;7.168;2024-03-23T12:28:16;3.25;;;1.10;;
83459;SDS011;73384;49.646;7.168;2024-03-23T12:30:42;1.95;;;1.40;;
83459;SDS011;73384;49.646;7.168;2024-03-23T12:33:07;1.48;;;1.05;;
83459;SDS011;73384;49.646;7.168;2024-03-23T12:35:34;2.20;;;0.80;;
83459;SDS011;73384;49.646;7.168;2024-03-23T12:38:00;2.22;;;0.93;;
83459;SDS011;73384;49.646;7.168;2024-03-23T12:40:26;0.80;;;0.80;;
83459;SDS011;73384;49.646;7.168;2024-03-23T12:42:52;1.73;;;0.80;;
83459;SDS011;73384;49.646;7.168;2024-03-23T12:45:18;1.40;;;0.80;;
83459;SDS011;73384;49.646;7.168;2024-03-23T12:47:43;2.50;;;0.82;;
83459;SDS011;73384;49.646;7.168;2024-03-23T12:50:09;2.38;;;0.90;;
83459;SDS011;73384;49.646;7.168;2024-03-23T12:52:35;1.80;;;0.77;;
83459;SDS011;73384;49.646;7.168;2024-03-23T12:55:01;2.80;;;0.98;;
83459;SDS011;73384;49.646;7.168;2024-03-23T12:57:28;2.50;;;0.70;;
83459;SDS011;73384;49.646;7.168;2024-03-23T12:59:53;4.07;;;1.00;;
83459;SDS011;73384;49.646;7.168;2024-03-23T13:02:22;1.88;;;0.80;;
83459;SDS011;73384;49.646;7.168;2024-03-23T13:04:51;3.80;;;1.27;;
83459;SDS011;73384;49.646;7.168;2024-03-23T13:07:18;2.00;;;0.90;;
83459;SDS011;73384;49.646;7.168;2024-03-23T13:09:45;1.95;;;0.90;;
83459;SDS011;73384;49.646;7.168;2024-03-23T13:12:11;2.00;;;0.93;;
83459;SDS011;73384;49.646;7.168;2024-03-23T13:14:37;2.00;;;1.00;;
83459;SDS011;73384;49.646;7.168;2024-03-23T13:17:03;2.72;;;1.02;;
83459;SDS011;73384;49.646;7.168;2024-03-23T13:19:29;3.10;;;0.85;;
83459;SDS011;73384;49.646;7.168;2024-03-23T13:21:58;2.25;;;0.98;;
83459;SDS011;73384;49.646;7.168;2024-03-23T13:24:25;2.28;;;1.00;;
83459;SDS011;73384;49.646;7.168;2024-03-23T13:26:51;1.13;;;0.60;;
83459;SDS011;73384;49.646;7.168;2024-03-23T13:29:18;2.67;;;0.63;;
83459;SDS011;73384;49.646;7.168;2024-03-23T13:31:44;4.55;;;1.15;;
83459;SDS011;73384;49.646;7.168;2024-03-23T13:34:10;3.75;;;0.55;;
83459;SDS011;73384;49.646;7.168;2024-03-23T13:36:36;1.52;;;0.60;;
83459;SDS011;73384;49.646;7.168;2024-03-23T13:39:04;0.77;;;0.53;;
83459;SDS011;73384;49.646;7.168;2024-03-23T13:41:31;1.75;;;0.80;;
83459;SDS011;73384;49.646;7.168;2024-03-23T13:43:57;2.08;;;0.70;;
83459;SDS011;73384;49.646;7.168;2024-03-23T13:46:22;1.73;;;1.02;;
83459;SDS011;73384;49.646;7.168;2024-03-23T13:48:48;3.00;;;0.73;;
83459;SDS011;73384;49.646;7.168;2024-03-23T13:51:13;2.90;;;1.07;;
83459;SDS011;73384;49.646;7.168;2024-03-23T13:53:38;2.35;;;0.95;;
83459;SDS011;73384;49.646;7.168;2024-03-23T13:56:04;3.13;;;1.05;;
83459;SDS011;73384;49.646;7.168;2024-03-23T13:58:29;2.90;;;0.80;;
83459;SDS011;73384;49.646;7.168;2024-03-23T14:00:56;5.68;;;1.00;;
83459;SDS011;73384;49.646;7.168;2024-03-23T14:03:22;0.93;;;0.60;;
83459;SDS011;73384;49.646;7.168;2024-03-23T14:05:48;1.75;;;0.45;;
83459;SDS011;73384;49.646;7.168;2024-03-23T14:08:14;1.05;;;0.65;;
83459;SDS011;73384;49.646;7.168;2024-03-23T14:10:42;1.30;;;0.80;;
83459;SDS011;73384;49.646;7.168;2024-03-23T14:13:08;3.42;;;1.02;;
83459;SDS011;73384;49.646;7.168;2024-03-23T14:15:34;1.90;;;0.50;;
83459;SDS011;73384;49.646;7.168;2024-03-23T14:17:59;2.92;;;0.77;;
83459;SDS011;73384;49.646;7.168;2024-03-23T14:20:25;2.53;;;0.75;;
83459;SDS011;73384;49.646;7.168;2024-03-23T14:22:50;1.35;;;0.70;;
83459;SDS011;73384;49.646;7.168;2024-03-23T14:25:16;1.30;;;0.70;;
83459;SDS011;73384;49.646;7.168;2024-03-23T14:27:45;2.92;;;0.73;;
83459;SDS011;73384;49.646;7.168;2024-03-23T14:30:11;2.25;;;0.80;;
83459;SDS011;73384;49.646;7.168;2024-03-23T14:32:38;6.22;;;1.10;;
83459;SDS011;73384;49.646;7.168;2024-03-23T14:35:04;1.73;;;0.77;;
83459;SDS011;73384;49.646;7.168;2024-03-23T14:37:29;2.42;;;0.90;;
83459;SDS011;73384;49.646;7.168;2024-03-23T14:39:55;1.67;;;0.60;;
83459;SDS011;73384;49.646;7.168;2024-03-23T14:42:21;4.13;;;0.85;;
83459;SDS011;73384;49.646;7.168;2024-03-23T14:44:47;3.83;;;0.70;;
83459;SDS011;73384;49.646;7.168;2024-03-23T14:47:12;1.73;;;0.70;;
83459;SDS011;73384;49.646;7.168;2024-03-23T14:49:38;5.25;;;0.90;;
83459;SDS011;73384;49.646;7.168;2024-03-23T14:52:03;1.80;;;0.80;;
83459;SDS011;73384;49.646;7.168;2024-03-23T14:54:29;1.92;;;1.10;;
83459;SDS011;73384;49.646;7.168;2024-03-23T14:56:54;1.38;;;0.57;;
83459;SDS011;73384;49.646;7.168;2024-03-23T14:59:21;2.60;;;0.70;;
83459;SDS011;73384;49.646;7.168;2024-03-23T15:01:46;1.20;;;0.77;;
83459;SDS011;73384;49.646;7.168;2024-03-23T15:04:12;0.60;;;0.60;;
83459;SDS011;73384;49.646;7.168;2024-03-23T15:06:37;1.38;;;1.30;;
83459;SDS011;73384;49.646;7.168;2024-03-23T15:09:02;3.35;;;0.77;;
83459;SDS011;73384;49.646;7.168;2024-03-23T15:11:32;2.22;;;0.70;;
83459;SDS011;73384;49.646;7.168;2024-03-23T15:13:58;1.70;;;1.33;;
83459;SDS011;73384;49.646;7.168;2024-03-23T15:16:23;2.30;;;0.90;;
83459;SDS011;73384;49.646;7.168;2024-03-23T15:18:49;4.68;;;0.85;;
83459;SDS011;73384;49.646;7.168;2024-03-23T15:23:44;2.28;;;0.50;;
83459;SDS011;73384;49.646;7.168;2024-03-23T15:28:35;1.93;;;0.40;;
83459;SDS011;73384;49.646;7.168;2024-03-23T15:31:20;1.13;;;0.50;;
83459;SDS011;73384;49.646;7.168;2024-03-23T15:36:10;2.20;;;0.40;;
83459;SDS011;73384;49.646;7.168;2024-03-23T15:41:03;0.30;;;0.30;;
83459;SDS011;73384;49.646;7.168;2024-03-23T15:45:54;0.80;;;0.40;;
83459;SDS011;73384;49.646;7.168;2024-03-23T15:48:26;1.70;;;0.65;;
83459;SDS011;73384;49.646;7.168;2024-03-23T15:53:21;0.55;;;0.55;;
83459;SDS011;73384;49.646;7.168;2024-03-23T15:55:57;3.33;;;1.08;;
83459;SDS011;73384;49.646;7.168;2024-03-23T15:58:24;0.40;;;0.40;;
83459;SDS011;73384;49.646;7.168;2024-03-23T16:01:08;0.60;;;0.50;;